Timeline UpdatesTrip UpdatesNews PostsPvt PostsTravel TipsAdmin PostsConv PostsFollowed PostsChat RequestsBlog PostsPNR Posts

Disclaimer
Search
 
 
Thu Jul 24, 2014 09:53:15 ISTHomeTrainsΣChainsAtlasPNRForumGalleryNewsFAQTripsMembersLoginFeedback
No Recent News for this Train
Other Trains in the News **new
Latest...
Monsoon TT Updated; W.e.f. 1st July to 30th September 2014
Mon Jun 30, 2014 (05:01PM)
⇐ Return Journey: Train# 16337

16338/Ernakulam-Okha Express

Jun 30 (5:01PM)
Change Departure Station:
Change Arrival Station:
Post a Train Travel TipPost a Train Travel Tip **new
Post a Comment/Question/Picture/VideoPost a Comment/Question/Picture/Video
Pantry/Catering
✓ Pantry Car Avbl
✓ Catering Avbl
RSA - Rake Sharing
12683/84 Ernakulam Bangalore Express
Rake/Coach Composition
LOCO-SLR-GEN-GEN-S1-S2-S3-S4-S5-S6-S7-S8-S9-S10-PC-S11-S12-B1-B2-A1-GEN-SLR.; Author: Mahesh Kavthankar.; ; Entry# Re# 276092-1.
Loco
ERS WDM3A
News    PNR    Forum    Time-Table    Availability    Fare Chart    Map    Arr/Dep History    Trips    Gallery    ΣChains    X/O    Timeline    
Travel Time: 37h 45m    32 halts    Distance: 2190 km    Avg Speed: 58 km/hr
Type: Mail/Express
Zone: SR/Southern
Departs @ 03:40
Platform# ???
    T S
Kasaragod/KGQ 
Arrives @ 17:25 +1 night
Platform# 1
S    F 
Okha/OKHA 

32 halts. 238 intermediate Stations between Kasaragod and Okha

Show ALL intermediate Stations  Show Old Time-Table

#CodeStation NameX/OArrivesAvgDepartsAvgHaltPFDay#KmSpeedElevZoneAddress
1ERSErnakulam Junction (South) (6)  -20:05-11-368.4653mSRErnakulam 682016, Kerala
2AWYAluva (3)  20:23-20:25-2m--1-349.06112mSRPh: 0484-2624141, Kerala
3TCRThrissur (4)  21:19-21:22-3m21-294.4346mSRThrissur Tel: 0487 2423150, Kerala
4SRRShoranur Junction (7)X  22:20-22:30-10m61-261.45326mSRShoranur ph.no 0466-2222913, Kerala
5PTBPattambi (2)  22:43-22:45-2m--1-249.96221mSRPattambi, Kerala
6KTUKuttippuram (2)X  23:03-23:05-2m--1-231.45017mSRKuttippuram, Kerala
7TIRTirur (3)  23:23-23:25-2m--1-216.3749mSRTel: 0494 2422240, Kerala
8PGIParappangadi (2)X  23:38-23:40-2m--1-200.26519mSRParappanangadi, Kerala
9FKFerok (2)  23:54-23:55-1m--1-185.12419mSRFeroke, Kerala
10CLTKozhikode Main (4)X  00:20-00:25-5m42-175.16311mSRCalicut Tel: 0495 2701234, Kerala
11QLDKoyilandy (3)  00:48-00:50-2m--2-150.87711mSRQuilandi, Kerala
12BDJVadakara (2)  01:07-01:09-2m22-128.86611mSRCalicut / Station Ph No : 0496-2524254, Kerala
13TLYThalassery (2)  01:29-01:30-1m62-106.7419mSRKannur, Kerala
14CANKannur Main (3)  02:00-02:05-5m12-86.06714mSRKannur Tel: 0497 2705555, Kerala
15KPQKannapuram (2)  02:18-02:20-2m12-71.6649mSRKannur District, Kerala
16PAYPayyanur (3)  02:38-02:40-2m--2-52.4530mSRKannur District, Kerala
17KZEKanhangad (3)  03:13-03:15-2m--2-23.16015mSRKanhangad, Kerala
18KGQ»Kasaragod (3)»  03:38-03:40-2m--20.04218mSRTel: 04994 220800, Kerala
19MAJNMangalore Junction (3)X  04:50-05:00-10m1249.13124mSRMangalore 575001, Karnataka
20SLSurathkal (1)  05:40-05:42-2m1269.67022mKRSurathkal, Karnataka
21UDUdupi (2)  06:18-06:20-2m--2111.58018mKRUdupi, Karnataka
22KUDAKundapura (2)X  06:44-06:46-2m12143.55313mKRBasrur, Karnataka
23BYNRByndoor Mookambika Road (1)  07:24-07:26-2m12177.05110mKRUdupi Dist. 576214, Karnataka
24BTJLBhatkal (2)  07:44-07:46-2m--2192.25316mKRBhatkal - 581320, Karnataka
25HNAHonnavar (2)  08:32-08:34-2m--2233.2474mKRUttara Kannada Dist, Karnataka
26KAWRKarwar (2)  10:02-10:04-2m--2302.04314mKRKarwar, Karnataka
27MAOMadgaon Junction (3)  11:30-11:40-10m22363.45211mKRMadgaon 403601, Goa
28THVMThivim (2)  12:32-12:34-2m12408.35521mKRThivim - 403502, Goa
29KKWKankavali (2)  14:00-14:02-2m12486.86845mKRKankavli - 416602, Maharashtra
30RNRatnagiri (3)X  15:40-15:45-5m22598.250129mKRRatnagiri 415612, Maharashtra
31MNIMangaon (2)  19:12-19:14-2m12771.15112mKRMangaon - 402104, Maharashtra
32PNVLPanvel Junction (7)X  21:20-21:25-5m62877.3-10mCRPanvel, Maharashtra
33BIRDBhiwandi Road (4)X  22:23-22:25-2m421218.63626mCRBhiwandi, Maharashtra
34BSRVasai Road (7)  23:10-23:15-5m621245.9607mWRThane-401202, Maharashtra
35BORBoisar (3)00:06-00:08-2m--31296.87217mWRBoisar Tel.no-02525-266626, Maharashtra
36BLValsad (3)X  01:28-01:30-2m131393.24815mWRValsad, Gujarat
37NVSNavsari (3)X  02:19-02:20-1m131432.33614mWRNavsari, Gujarat
38STSurat (4)  03:10-03:22-12m131461.97519mWRSurat 395001, Gujarat
39AKVAnkleshwar Junction (4)XO  04:02-04:04-2m131511.97019mWRAnkleshwar, Gujarat
40BRCVadodara Junction (7)X  05:12-05:22-10m231591.76736mWRVadodara 390005, Gujarat
41ANNDAnand Junction (6)X  05:54-05:56-2m231627.56144mWRAnand, Gujarat
42MANManinagar (2)  06:56-06:58-2m131688.41150mWRAhmadabad, Gujarat
43ADIAhmedabad Junction (12)  07:15-07:35-20m131691.56351mWRAhmedabad, Gujarat
44VGViramgam Junction (5)  08:37-08:39-2m131757.04729mWRViramgam, Gujarat
45SUNRSurendranagar Junction (4)  10:03-10:05-2m--31822.55472mWRSurendra Nagar, Gujarat
46RJTRajkot Junction (5)X  12:13-12:28-15m231938.558128mWRRajkot, Gujarat
47HAPAHapa (3)  13:46-13:48-2m--32014.43716mWRJamnagar, Gujarat
48JAMJamnagar (2)X  14:02-14:05-3m--32023.14814mWRJamnagar, Gujarat
49KMBLKhambhalia  15:13-15:15-2m--32077.46949mWRKhambhalia, Gujarat
50DWKDwarka (2)  16:28-16:30-2m--32161.53114mWRDwarka, Gujarat
51OKHA•Okha (3)•  17:25--132190.1-5mWROkha, Gujarat
Scroll to Top
Scroll to Bottom